createdAt,value
2018-02-05T00:00:06.084Z,-3.62
2018-02-05T00:01:05.912Z,-3.62
2018-02-05T00:02:06.647Z,-3.62
2018-02-05T00:03:05.984Z,-3.69
2018-02-05T00:04:06.226Z,-3.69
2018-02-05T00:05:07.111Z,-3.69
2018-02-05T00:06:06.556Z,-3.69
2018-02-05T00:07:06.393Z,-3.69
2018-02-05T00:08:05.904Z,-3.69
2018-02-05T00:09:05.673Z,-3.75
2018-02-05T00:10:06.354Z,-3.75
2018-02-05T00:11:06.389Z,-3.75
2018-02-05T00:12:05.937Z,-3.75
2018-02-05T00:13:06.197Z,-3.81
2018-02-05T00:14:06.249Z,-3.81
2018-02-05T00:15:05.619Z,-3.88
2018-02-05T00:16:05.834Z,-3.88
2018-02-05T00:17:06.472Z,-3.88
2018-02-05T00:18:07.198Z,-3.88
2018-02-05T00:19:05.831Z,-3.94
2018-02-05T00:20:06.062Z,-3.94
2018-02-05T00:21:05.737Z,-3.94
2018-02-05T00:22:10.672Z,-3.94
2018-02-05T00:23:06.061Z,-4.00
2018-02-05T00:24:05.696Z,-4.00
2018-02-05T00:25:05.992Z,-4.06
2018-02-05T00:26:11.406Z,-4.12
2018-02-05T00:27:05.849Z,-4.12
2018-02-05T00:28:06.074Z,-4.12
2018-02-05T00:29:06.252Z,-4.12
2018-02-05T00:30:06.167Z,-4.12
2018-02-05T00:31:06.074Z,-4.19
2018-02-05T00:32:06.146Z,-4.19
2018-02-05T00:33:05.835Z,-4.19
2018-02-05T00:34:05.693Z,-4.19
2018-02-05T00:35:05.750Z,-4.25
2018-02-05T00:36:05.908Z,-4.25
2018-02-05T00:37:05.502Z,-4.25
2018-02-05T00:38:05.569Z,-4.31
2018-02-05T00:39:06.095Z,-4.31
2018-02-05T00:40:05.788Z,-4.31
2018-02-05T00:41:10.995Z,-4.31
2018-02-05T00:42:06.234Z,-4.38
2018-02-05T00:43:05.501Z,-4.38
2018-02-05T00:44:05.769Z,-4.38
2018-02-05T00:45:05.908Z,-4.38
2018-02-05T00:46:10.612Z,-4.44
2018-02-05T00:47:06.249Z,-4.44
2018-02-05T00:48:05.928Z,-4.44
2018-02-05T00:49:06.394Z,-4.50
2018-02-05T00:50:06.069Z,-4.50
2018-02-05T00:51:05.503Z,-4.50
2018-02-05T00:52:06.521Z,-4.50
2018-02-05T00:53:06.466Z,-4.56
2018-02-05T00:54:11.412Z,-4.56
2018-02-05T00:55:06.044Z,-4.56
2018-02-05T00:56:05.747Z,-4.56
2018-02-05T00:57:10.744Z,-4.62
2018-02-05T00:58:06.467Z,-4.62
2018-02-05T00:59:07.262Z,-4.62
2018-02-05T01:00:06.388Z,-4.62
2018-02-05T01:01:06.463Z,-4.69
2018-02-05T01:02:06.386Z,-4.69
2018-02-05T01:03:05.992Z,-4.69
2018-02-05T01:04:05.668Z,-4.75
2018-02-05T01:05:06.125Z,-4.75
2018-02-05T01:06:06.070Z,-4.75
2018-02-05T01:07:05.987Z,-4.75
2018-02-05T01:08:06.004Z,-4.75
2018-02-05T01:09:06.156Z,-4.81
2018-02-05T01:10:05.953Z,-4.81
2018-02-05T01:11:05.516Z,-4.81
2018-02-05T01:12:05.749Z,-4.81
2018-02-05T01:13:06.154Z,-4.81
2018-02-05T01:14:06.393Z,-4.81
2018-02-05T01:15:05.916Z,-4.88
2018-02-05T01:16:06.318Z,-4.88
2018-02-05T01:17:06.149Z,-4.88
2018-02-05T01:18:05.678Z,-4.94
2018-02-05T01:19:06.160Z,-4.94
2018-02-05T01:20:05.832Z,-5.00
2018-02-05T01:21:05.701Z,-5.00
2018-02-05T01:22:06.404Z,-5.00
2018-02-05T01:23:05.768Z,-5.00
2018-02-05T01:24:10.696Z,-5.00
2018-02-05T01:25:06.309Z,-5.00
2018-02-05T01:26:06.502Z,-5.00
2018-02-05T01:27:06.556Z,-5.00
2018-02-05T01:28:05.894Z,-5.00
2018-02-05T01:29:11.212Z,-5.06
2018-02-05T01:30:05.741Z,-5.06
2018-02-05T01:31:05.511Z,-5.06
2018-02-05T01:32:05.907Z,-5.06
2018-02-05T01:33:06.657Z,-5.06
2018-02-05T01:34:05.842Z,-5.06
2018-02-05T01:35:05.996Z,-5.12
2018-02-05T01:36:06.144Z,-5.12
2018-02-05T01:37:06.394Z,-5.12
2018-02-05T01:38:06.233Z,-5.12
2018-02-05T01:39:05.663Z,-5.12
2018-02-05T01:40:05.982Z,-5.19
2018-02-05T01:41:05.912Z,-5.19
2018-02-05T01:42:05.671Z,-5.19
2018-02-05T01:43:06.259Z,-5.19
2018-02-05T01:44:05.940Z,-5.25
2018-02-05T01:45:06.164Z,-5.25
2018-02-05T01:46:06.306Z,-5.25
2018-02-05T01:47:06.083Z,-5.25
2018-02-05T01:48:06.386Z,-5.25
2018-02-05T01:49:06.473Z,-5.25
2018-02-05T01:50:06.062Z,-5.31
2018-02-05T01:51:06.365Z,-5.31
2018-02-05T01:52:05.830Z,-5.31
2018-02-05T01:53:05.828Z,-5.31
2018-02-05T01:54:06.074Z,-5.38
2018-02-05T01:55:06.393Z,-5.38
2018-02-05T01:56:06.517Z,-5.38
2018-02-05T01:57:06.314Z,-5.44
2018-02-05T01:58:05.785Z,-5.44
2018-02-05T01:59:11.424Z,-5.44
2018-02-05T02:00:06.063Z,-5.44
2018-02-05T02:01:06.080Z,-5.44
2018-02-05T02:02:06.424Z,-5.50
2018-02-05T02:03:06.342Z,-5.50
2018-02-05T02:04:06.400Z,-5.50
2018-02-05T02:05:06.166Z,-5.56
2018-02-05T02:06:05.980Z,-5.56
2018-02-05T02:07:05.783Z,-5.56
2018-02-05T02:08:06.406Z,-5.56
2018-02-05T02:09:06.516Z,-5.62
2018-02-05T02:10:06.555Z,-5.62
2018-02-05T02:11:05.987Z,-5.62
2018-02-05T02:12:05.914Z,-5.62
2018-02-05T02:13:07.519Z,-5.62
2018-02-05T02:14:05.896Z,-5.62
2018-02-05T02:15:06.230Z,-5.62
2018-02-05T02:16:06.298Z,-5.69
2018-02-05T02:17:05.751Z,-5.75
2018-02-05T02:18:06.152Z,-5.75
2018-02-05T02:19:06.066Z,-5.75
2018-02-05T02:20:05.772Z,-5.75
2018-02-05T02:21:06.458Z,-5.75
2018-02-05T02:22:06.001Z,-5.75
2018-02-05T02:23:06.393Z,-5.75
2018-02-05T02:24:05.762Z,-5.75
2018-02-05T02:25:06.315Z,-5.81
2018-02-05T02:26:05.519Z,-5.81
2018-02-05T02:27:05.906Z,-5.81
2018-02-05T02:28:06.144Z,-5.81
2018-02-05T02:29:06.071Z,-5.81
2018-02-05T02:30:06.059Z,-5.81
2018-02-05T02:31:05.833Z,-5.81
2018-02-05T02:32:06.644Z,-5.81
2018-02-05T02:33:05.886Z,-5.81
2018-02-05T02:34:05.663Z,-5.81
2018-02-05T02:35:05.860Z,-5.81
2018-02-05T02:36:05.596Z,-5.81
2018-02-05T02:37:06.365Z,-5.88
2018-02-05T02:38:06.944Z,-5.88
2018-02-05T02:39:06.146Z,-5.88
2018-02-05T02:40:05.989Z,-5.94
2018-02-05T02:41:05.859Z,-5.94
2018-02-05T02:42:05.903Z,-5.94
2018-02-05T02:43:06.138Z,-5.94
2018-02-05T02:44:06.119Z,-5.94
2018-02-05T02:45:06.233Z,-6.00
2018-02-05T02:46:06.800Z,-6.00
2018-02-05T02:47:05.891Z,-6.00
2018-02-05T02:48:06.102Z,-6.00
2018-02-05T02:49:06.216Z,-6.06
2018-02-05T02:50:06.230Z,-6.06
2018-02-05T02:51:05.820Z,-6.06
2018-02-05T02:52:05.666Z,-6.06
2018-02-05T02:53:05.754Z,-6.12
2018-02-05T02:54:06.399Z,-6.12
2018-02-05T02:55:06.304Z,-6.12
2018-02-05T02:56:05.608Z,-6.12
2018-02-05T02:57:06.220Z,-6.12
2018-02-05T02:58:05.671Z,-6.12
2018-02-05T02:59:05.519Z,-6.12
2018-02-05T03:00:06.136Z,-6.12
2018-02-05T03:01:07.342Z,-6.12
2018-02-05T03:02:05.499Z,-6.12
2018-02-05T03:03:06.269Z,-6.12
2018-02-05T03:04:06.067Z,-6.12
2018-02-05T03:05:06.557Z,-6.12
2018-02-05T03:06:06.229Z,-6.12
2018-02-05T03:07:05.751Z,-6.12
2018-02-05T03:08:06.388Z,-6.12
2018-02-05T03:09:06.064Z,-6.12
2018-02-05T03:10:06.031Z,-6.06
2018-02-05T03:11:11.160Z,-6.06
2018-02-05T03:12:06.396Z,-6.12
2018-02-05T03:13:05.911Z,-6.06
2018-02-05T03:14:10.572Z,-6.06
2018-02-05T03:15:05.915Z,-6.06
2018-02-05T03:16:06.103Z,-6.06
2018-02-05T03:17:06.274Z,-6.00
2018-02-05T03:18:06.334Z,-6.00
2018-02-05T03:19:05.886Z,-5.94
2018-02-05T03:20:06.550Z,-5.94
2018-02-05T03:21:05.900Z,-5.94
2018-02-05T03:22:06.469Z,-5.88
2018-02-05T03:23:06.157Z,-5.88
2018-02-05T03:24:06.084Z,-5.88
2018-02-05T03:25:10.718Z,-5.81
2018-02-05T03:26:06.087Z,-5.81
2018-02-05T03:27:06.388Z,-5.81
2018-02-05T03:28:06.403Z,-5.81
2018-02-05T03:29:06.235Z,-5.81
2018-02-05T03:30:06.059Z,-5.81
2018-02-05T03:31:06.336Z,-5.81
2018-02-05T03:32:05.584Z,-5.75
2018-02-05T03:33:05.673Z,-5.75
2018-02-05T03:34:06.444Z,-5.69
2018-02-05T03:35:06.148Z,-5.69
2018-02-05T03:36:06.402Z,-5.69
2018-02-05T03:37:06.331Z,-5.69
2018-02-05T03:38:06.327Z,-5.62
2018-02-05T03:39:05.688Z,-5.62
2018-02-05T03:40:05.687Z,-5.62
2018-02-05T03:41:06.474Z,-5.62
2018-02-05T03:42:06.149Z,-5.62
2018-02-05T03:43:06.241Z,-5.56
2018-02-05T03:44:10.681Z,-5.56
2018-02-05T03:45:06.144Z,-5.56
2018-02-05T03:46:05.796Z,-5.50
2018-02-05T03:47:06.446Z,-5.50
2018-02-05T03:48:05.680Z,-5.50
2018-02-05T03:49:05.921Z,-5.50
2018-02-05T03:50:06.394Z,-5.44
2018-02-05T03:51:05.921Z,-5.44
2018-02-05T03:52:05.677Z,-5.44
2018-02-05T03:53:06.336Z,-5.44
2018-02-05T03:54:05.934Z,-5.38
2018-02-05T03:55:05.995Z,-5.38
2018-02-05T03:56:11.034Z,-5.38
2018-02-05T03:57:05.701Z,-5.31
2018-02-05T03:58:05.516Z,-5.38
2018-02-05T03:59:05.918Z,-5.38
2018-02-05T04:00:06.285Z,-5.31
2018-02-05T04:01:05.990Z,-5.31
2018-02-05T04:02:05.750Z,-5.31
2018-02-05T04:03:06.732Z,-5.25
2018-02-05T04:04:06.004Z,-5.25
2018-02-05T04:05:06.396Z,-5.19
2018-02-05T04:06:06.220Z,-5.19
2018-02-05T04:07:05.520Z,-5.19
2018-02-05T04:08:05.922Z,-5.19
2018-02-05T04:09:11.388Z,-5.12
2018-02-05T04:10:05.665Z,-5.12
2018-02-05T04:11:05.951Z,-5.12
2018-02-05T04:12:05.753Z,-5.06
2018-02-05T04:13:06.226Z,-5.06
2018-02-05T04:14:06.312Z,-5.00
2018-02-05T04:15:05.752Z,-5.00
2018-02-05T04:16:06.353Z,-5.00
2018-02-05T04:17:06.316Z,-4.94
2018-02-05T04:18:06.004Z,-4.94
2018-02-05T04:19:05.606Z,-4.88
2018-02-05T04:20:05.748Z,-4.88
2018-02-05T04:21:06.015Z,-4.88
2018-02-05T04:22:06.245Z,-4.81
2018-02-05T04:23:05.515Z,-4.81
2018-02-05T04:24:11.000Z,-4.81
2018-02-05T04:25:05.686Z,-4.75
2018-02-05T04:26:05.922Z,-4.75
2018-02-05T04:27:06.199Z,-4.69
2018-02-05T04:28:06.306Z,-4.69
2018-02-05T04:29:05.922Z,-4.62
2018-02-05T04:30:07.206Z,-4.56
2018-02-05T04:31:05.983Z,-4.56
2018-02-05T04:32:05.731Z,-4.56
2018-02-05T04:33:06.067Z,-4.56
2018-02-05T04:34:05.894Z,-4.56
2018-02-05T04:35:05.670Z,-4.50
2018-02-05T04:36:06.389Z,-4.50
2018-02-05T04:37:05.592Z,-4.50
2018-02-05T04:38:06.069Z,-4.44
2018-02-05T04:39:06.491Z,-4.44
2018-02-05T04:40:05.817Z,-4.38
2018-02-05T04:41:05.506Z,-4.38
2018-02-05T04:42:06.150Z,-4.38
2018-02-05T04:43:06.154Z,-4.31
2018-02-05T04:44:06.020Z,-4.31
2018-02-05T04:45:05.702Z,-4.31
2018-02-05T04:46:06.502Z,-4.25
2018-02-05T04:47:06.066Z,-4.25
2018-02-05T04:48:06.732Z,-4.19
2018-02-05T04:49:06.235Z,-4.19
2018-02-05T04:50:05.830Z,-4.19
2018-02-05T04:51:06.484Z,-4.12
2018-02-05T04:52:05.992Z,-4.12
2018-02-05T04:53:05.992Z,-4.06
2018-02-05T04:54:06.314Z,-4.06
2018-02-05T04:55:05.859Z,-4.06
2018-02-05T04:56:05.596Z,-4.00
2018-02-05T04:57:06.371Z,-4.00
2018-02-05T04:58:06.304Z,-4.00
2018-02-05T04:59:05.988Z,-3.94
2018-02-05T05:00:06.138Z,-3.94
2018-02-05T05:01:06.148Z,-3.94
2018-02-05T05:02:06.053Z,-3.88
2018-02-05T05:03:05.508Z,-3.88
2018-02-05T05:04:05.920Z,-3.88
2018-02-05T05:05:05.919Z,-3.81
2018-02-05T05:06:05.992Z,-3.81
2018-02-05T05:07:06.319Z,-3.75
2018-02-05T05:08:06.234Z,-3.75
2018-02-05T05:09:05.962Z,-3.75
2018-02-05T05:10:06.217Z,-3.69
2018-02-05T05:11:05.878Z,-3.69
2018-02-05T05:12:05.755Z,-3.69
2018-02-05T05:13:06.274Z,-3.62
2018-02-05T05:14:05.587Z,-3.62
2018-02-05T05:15:06.307Z,-3.62
2018-02-05T05:16:05.754Z,-3.62
2018-02-05T05:17:06.522Z,-3.56
2018-02-05T05:18:06.483Z,-3.56
2018-02-05T05:19:10.945Z,-3.56
2018-02-05T05:20:06.227Z,-3.50
2018-02-05T05:21:11.158Z,-3.50
2018-02-05T05:22:06.388Z,-3.50
2018-02-05T05:23:05.825Z,-3.50
2018-02-05T05:24:05.824Z,-3.50
2018-02-05T05:25:11.600Z,-3.44
2018-02-05T05:26:06.234Z,-3.44
2018-02-05T05:27:05.935Z,-3.44
2018-02-05T05:28:06.164Z,-3.38
2018-02-05T05:29:06.097Z,-3.38
2018-02-05T05:30:06.548Z,-3.38
2018-02-05T05:31:05.922Z,-3.38
2018-02-05T05:32:11.309Z,-3.31
2018-02-05T05:33:05.555Z,-3.31
2018-02-05T05:34:06.569Z,-3.31
2018-02-05T05:35:06.111Z,-3.31
2018-02-05T05:36:06.231Z,-3.25
2018-02-05T05:37:06.437Z,-3.25
2018-02-05T05:38:05.782Z,-3.25
2018-02-05T05:39:06.233Z,-3.25
2018-02-05T05:40:06.046Z,-3.19
2018-02-05T05:41:05.825Z,-3.19
2018-02-05T05:42:05.613Z,-3.19
2018-02-05T05:43:05.943Z,-3.19
2018-02-05T05:44:05.754Z,-3.19
2018-02-05T05:45:06.305Z,-3.19
2018-02-05T05:46:05.915Z,-3.12
2018-02-05T05:47:05.509Z,-3.12
2018-02-05T05:48:06.079Z,-3.12
2018-02-05T05:49:05.668Z,-3.12
2018-02-05T05:50:06.406Z,-3.06
2018-02-05T05:51:06.371Z,-3.06
2018-02-05T05:52:05.916Z,-3.06
2018-02-05T05:53:06.580Z,-3.06
2018-02-05T05:54:06.387Z,-3.06
2018-02-05T05:55:06.104Z,-3.00
2018-02-05T05:56:06.008Z,-3.00
2018-02-05T05:57:06.465Z,-3.00
2018-02-05T05:58:06.093Z,-3.00
2018-02-05T05:59:05.850Z,-3.00
2018-02-05T06:00:06.462Z,-3.00
2018-02-05T06:01:05.834Z,-2.94
2018-02-05T06:02:06.362Z,-2.94
2018-02-05T06:03:05.862Z,-2.88
2018-02-05T06:04:05.626Z,-2.88
2018-02-05T06:05:06.003Z,-2.88
2018-02-05T06:06:06.404Z,-2.88
2018-02-05T06:07:05.508Z,-2.88
2018-02-05T06:08:06.312Z,-2.88
2018-02-05T06:09:05.914Z,-2.88
2018-02-05T06:10:05.667Z,-2.88
2018-02-05T06:11:05.702Z,-2.81
2018-02-05T06:12:06.725Z,-2.81
2018-02-05T06:13:10.775Z,-2.81
2018-02-05T06:14:06.188Z,-2.81
2018-02-05T06:15:06.088Z,-2.81
2018-02-05T06:16:05.685Z,-2.81
2018-02-05T06:17:06.465Z,-2.81
2018-02-05T06:18:06.388Z,-2.81
2018-02-05T06:19:05.751Z,-2.81
2018-02-05T06:20:05.816Z,-2.81
2018-02-05T06:21:06.563Z,-2.81
2018-02-05T06:22:05.757Z,-2.75
2018-02-05T06:23:06.067Z,-2.75
2018-02-05T06:24:06.057Z,-2.75
2018-02-05T06:25:05.433Z,-2.75
2018-02-05T06:26:06.222Z,-2.75
2018-02-05T06:27:06.051Z,-2.69
2018-02-05T06:28:07.604Z,-2.69
2018-02-05T06:29:05.825Z,-2.69
2018-02-05T06:30:06.593Z,-2.69
2018-02-05T06:31:06.094Z,-2.69
2018-02-05T06:32:06.018Z,-2.75
2018-02-05T06:33:10.931Z,-2.75
2018-02-05T06:34:06.230Z,-2.69
2018-02-05T06:35:06.185Z,-2.75
2018-02-05T06:36:06.333Z,-2.75
2018-02-05T06:37:07.038Z,-2.75
2018-02-05T06:38:05.781Z,-2.75
2018-02-05T06:39:06.046Z,-2.69
2018-02-05T06:40:06.899Z,-2.69
2018-02-05T06:41:06.304Z,-2.69
2018-02-05T06:42:05.958Z,-2.69
2018-02-05T06:43:06.307Z,-2.69
2018-02-05T06:44:06.312Z,-2.69
2018-02-05T06:45:05.688Z,-2.62
2018-02-05T06:46:06.491Z,-2.62
2018-02-05T06:47:05.771Z,-2.62
2018-02-05T06:48:10.535Z,-2.62
2018-02-05T06:49:05.834Z,-2.62
2018-02-05T06:50:06.159Z,-2.62
2018-02-05T06:51:06.157Z,-2.62
2018-02-05T06:52:06.071Z,-2.62
2018-02-05T06:53:05.905Z,-2.62
2018-02-05T06:54:06.230Z,-2.62
2018-02-05T06:55:05.907Z,-2.56
2018-02-05T06:56:06.399Z,-2.56
2018-02-05T06:57:06.278Z,-2.56
2018-02-05T06:58:05.673Z,-2.50
2018-02-05T06:59:06.544Z,-2.50
2018-02-05T07:00:05.843Z,-2.50
2018-02-05T07:01:06.424Z,-2.50
2018-02-05T07:02:06.070Z,-2.50
2018-02-05T07:03:05.519Z,-2.44
2018-02-05T07:04:06.395Z,-2.44
2018-02-05T07:05:05.745Z,-2.44
2018-02-05T07:06:05.928Z,-2.44
2018-02-05T07:07:05.931Z,-2.44
2018-02-05T07:08:06.202Z,-2.38
2018-02-05T07:09:06.085Z,-2.38
2018-02-05T07:10:06.106Z,-2.38
2018-02-05T07:11:05.675Z,-2.38
2018-02-05T07:12:06.308Z,-2.38
2018-02-05T07:13:05.995Z,-2.31
2018-02-05T07:14:05.797Z,-2.31
2018-02-05T07:15:06.569Z,-2.31
2018-02-05T07:16:05.666Z,-2.31
2018-02-05T07:17:05.750Z,-2.31
2018-02-05T07:18:10.777Z,-2.25
2018-02-05T07:19:06.228Z,-2.25
2018-02-05T07:20:05.860Z,-2.25
2018-02-05T07:21:05.671Z,-2.25
2018-02-05T07:22:06.481Z,-2.25
2018-02-05T07:23:05.677Z,-2.25
2018-02-05T07:24:05.760Z,-2.25
2018-02-05T07:25:05.595Z,-2.19
2018-02-05T07:26:05.671Z,-2.19
2018-02-05T07:27:05.598Z,-2.19
2018-02-05T07:28:06.313Z,-2.19
2018-02-05T07:29:06.070Z,-2.12
2018-02-05T07:30:06.583Z,-2.12
2018-02-05T07:31:06.118Z,-2.12
2018-02-05T07:32:05.915Z,-2.12
2018-02-05T07:33:11.326Z,-2.12
2018-02-05T07:34:05.835Z,-2.12
2018-02-05T07:35:05.592Z,-2.12
2018-02-05T07:36:06.635Z,-2.06
2018-02-05T07:37:05.825Z,-2.06
2018-02-05T07:38:06.473Z,-2.06
2018-02-05T07:39:05.993Z,-2.06
2018-02-05T07:40:05.956Z,-2.00
2018-02-05T07:41:06.060Z,-2.00
2018-02-05T07:42:05.675Z,-2.00
2018-02-05T07:43:06.273Z,-1.94
2018-02-05T07:44:05.830Z,-1.94
2018-02-05T07:45:06.442Z,-1.94
2018-02-05T07:46:05.838Z,-1.94
2018-02-05T07:47:05.919Z,-1.94
2018-02-05T07:48:06.176Z,-1.88
2018-02-05T07:49:06.240Z,-1.88
2018-02-05T07:50:06.379Z,-1.88
2018-02-05T07:51:06.312Z,-1.88
2018-02-05T07:52:05.830Z,-1.88
2018-02-05T07:53:05.851Z,-1.88
2018-02-05T07:54:05.699Z,-1.81
2018-02-05T07:55:05.920Z,-1.81
2018-02-05T07:56:05.933Z,-1.81
2018-02-05T07:57:10.919Z,-1.81
2018-02-05T07:58:06.086Z,-1.81
2018-02-05T07:59:05.940Z,-1.81
2018-02-05T08:00:05.750Z,-1.75
2018-02-05T08:01:05.680Z,-1.75
2018-02-05T08:02:05.557Z,-1.75
2018-02-05T08:03:06.481Z,-1.75
2018-02-05T08:04:06.485Z,-1.75
2018-02-05T08:05:05.912Z,-1.69
2018-02-05T08:06:06.398Z,-1.69
2018-02-05T08:07:06.251Z,-1.69
2018-02-05T08:08:06.328Z,-1.69
2018-02-05T08:09:05.706Z,-1.69
2018-02-05T08:10:05.751Z,-1.62
2018-02-05T08:11:05.747Z,-1.62
2018-02-05T08:12:05.588Z,-1.62
2018-02-05T08:13:05.760Z,-1.56
2018-02-05T08:14:10.789Z,-1.56
2018-02-05T08:15:06.244Z,-1.56
2018-02-05T08:16:06.069Z,-1.56
2018-02-05T08:17:06.167Z,-1.56
2018-02-05T08:18:06.082Z,-1.56
2018-02-05T08:19:10.928Z,-1.50
2018-02-05T08:20:05.647Z,-1.50
2018-02-05T08:21:06.371Z,-1.50
2018-02-05T08:22:06.291Z,-1.50
2018-02-05T08:23:05.844Z,-1.50
2018-02-05T08:24:05.513Z,-1.50
2018-02-05T08:25:06.270Z,-1.44
2018-02-05T08:26:05.941Z,-1.44
2018-02-05T08:27:06.561Z,-1.44
2018-02-05T08:28:06.315Z,-1.44
2018-02-05T08:29:06.475Z,-1.38
2018-02-05T08:30:06.475Z,-1.44
2018-02-05T08:31:06.395Z,-1.38
2018-02-05T08:32:06.080Z,-1.38
2018-02-05T08:33:05.654Z,-1.38
2018-02-05T08:34:06.154Z,-1.38
2018-02-05T08:35:05.817Z,-1.31
2018-02-05T08:36:06.154Z,-1.31
2018-02-05T08:37:11.242Z,-1.31
2018-02-05T08:38:05.697Z,-1.31
2018-02-05T08:39:05.511Z,-1.25
2018-02-05T08:40:05.940Z,-1.25
2018-02-05T08:41:06.463Z,-1.25
2018-02-05T08:42:06.078Z,-1.25
2018-02-05T08:43:06.240Z,-1.25
2018-02-05T08:44:10.985Z,-1.19
2018-02-05T08:45:06.345Z,-1.19
2018-02-05T08:46:05.698Z,-1.19
2018-02-05T08:47:06.395Z,-1.19
2018-02-05T08:48:05.773Z,-1.19
2018-02-05T08:49:06.009Z,-1.19
2018-02-05T08:50:06.446Z,-1.19
2018-02-05T08:51:06.169Z,-1.12
2018-02-05T08:52:06.166Z,-1.12
2018-02-05T08:53:10.925Z,-1.12
2018-02-05T08:54:05.595Z,-1.12
2018-02-05T08:55:06.070Z,-1.06
2018-02-05T08:56:05.855Z,-1.06
2018-02-05T08:57:06.556Z,-1.06
2018-02-05T08:58:06.043Z,-1.00
2018-02-05T08:59:05.845Z,-1.00
2018-02-05T09:00:06.239Z,-1.00
2018-02-05T09:01:06.234Z,-1.00
2018-02-05T09:02:05.600Z,-0.94
2018-02-05T09:03:05.664Z,-0.94
2018-02-05T09:04:06.085Z,-0.94
2018-02-05T09:05:05.547Z,-0.88
2018-02-05T09:06:05.854Z,-0.88
2018-02-05T09:07:05.991Z,-0.88
2018-02-05T09:08:05.674Z,-0.81
2018-02-05T09:09:06.243Z,-0.81
2018-02-05T09:10:05.903Z,-0.81
2018-02-05T09:11:05.837Z,-0.75
2018-02-05T09:12:06.008Z,-0.75
2018-02-05T09:13:06.405Z,-0.75
2018-02-05T09:14:06.156Z,-0.75
2018-02-05T09:15:05.677Z,-0.75
2018-02-05T09:16:06.225Z,-0.69
2018-02-05T09:17:05.768Z,-0.69
2018-02-05T09:18:06.181Z,-0.69
2018-02-05T09:19:06.272Z,-0.69
2018-02-05T09:20:05.705Z,-0.69
2018-02-05T09:21:05.945Z,-0.69
2018-02-05T09:22:05.707Z,-0.69
2018-02-05T09:23:06.249Z,-0.62
2018-02-05T09:24:05.912Z,-0.62
2018-02-05T09:25:05.760Z,-0.62
2018-02-05T09:26:06.171Z,-0.62
2018-02-05T09:27:06.226Z,-0.62
2018-02-05T09:28:06.254Z,-0.62
2018-02-05T09:29:06.022Z,-0.62
2018-02-05T09:30:05.826Z,-0.62
2018-02-05T09:31:05.679Z,-0.62
2018-02-05T09:32:06.251Z,-0.62
2018-02-05T09:33:06.316Z,-0.62
2018-02-05T09:34:05.851Z,-0.62
2018-02-05T09:35:05.609Z,-0.56
2018-02-05T09:36:06.383Z,-0.56
2018-02-05T09:37:06.802Z,-0.56
2018-02-05T09:38:06.072Z,-0.56
2018-02-05T09:39:05.883Z,-0.56
2018-02-05T09:40:11.005Z,-0.56
2018-02-05T09:41:05.620Z,-0.56
2018-02-05T09:42:05.758Z,-0.56
2018-02-05T09:43:05.916Z,-0.56
2018-02-05T09:44:05.844Z,-0.56
2018-02-05T09:45:05.761Z,-0.50
2018-02-05T09:46:06.305Z,-0.56
2018-02-05T09:47:05.999Z,-0.56
2018-02-05T09:48:05.994Z,-0.56
2018-02-05T09:49:05.532Z,-0.50
2018-02-05T09:50:06.221Z,-0.50
2018-02-05T09:51:06.318Z,-0.50
2018-02-05T09:52:05.677Z,-0.50
2018-02-05T09:53:06.204Z,-0.50
2018-02-05T09:54:05.685Z,-0.50
2018-02-05T09:55:05.516Z,-0.44
2018-02-05T09:56:06.228Z,-0.50
2018-02-05T09:57:10.832Z,-0.50
2018-02-05T09:58:06.168Z,-0.50
2018-02-05T09:59:05.541Z,-0.44
2018-02-05T10:00:06.240Z,-0.50
2018-02-05T10:01:06.109Z,-0.50
2018-02-05T10:02:05.908Z,-0.56
2018-02-05T10:03:06.151Z,-0.56
2018-02-05T10:04:06.242Z,-0.56
2018-02-05T10:05:06.084Z,-0.62
2018-02-05T10:06:06.474Z,-0.62
2018-02-05T10:07:05.594Z,-0.56
2018-02-05T10:08:05.684Z,-0.62
2018-02-05T10:09:06.438Z,-0.62
2018-02-05T10:10:06.394Z,-0.62
2018-02-05T10:11:06.475Z,-0.56
2018-02-05T10:12:05.981Z,-0.62
2018-02-05T10:13:06.169Z,-0.56
2018-02-05T10:14:06.472Z,-0.62
2018-02-05T10:15:06.337Z,-0.56
2018-02-05T10:16:06.389Z,-0.50
2018-02-05T10:17:06.007Z,-0.50
2018-02-05T10:18:05.601Z,-0.44
2018-02-05T10:19:06.054Z,-0.44
2018-02-05T10:20:06.477Z,-0.44
2018-02-05T10:21:06.476Z,-0.44
2018-02-05T10:22:05.685Z,-0.44
2018-02-05T10:23:06.233Z,-0.44
2018-02-05T10:24:11.756Z,-0.44
2018-02-05T10:25:07.361Z,-0.38
2018-02-05T10:26:10.947Z,-0.38
2018-02-05T10:27:05.602Z,-0.38
2018-02-05T10:28:06.430Z,-0.31
2018-02-05T10:29:06.299Z,-0.31
2018-02-05T10:30:06.525Z,-0.38
2018-02-05T10:31:05.838Z,-0.38
2018-02-05T10:32:05.838Z,-0.38
2018-02-05T10:33:05.910Z,-0.31
2018-02-05T10:34:10.883Z,-0.25
2018-02-05T10:35:05.511Z,-0.19
2018-02-05T10:36:06.155Z,-0.19
2018-02-05T10:37:05.606Z,-0.12
2018-02-05T10:38:05.686Z,-0.12
2018-02-05T10:39:05.753Z,-0.06
2018-02-05T10:40:05.843Z,-0.06
2018-02-05T10:41:06.669Z,-0.06
2018-02-05T10:42:06.352Z,0.00
2018-02-05T10:43:06.321Z,0.00
2018-02-05T10:44:06.329Z,0.00
2018-02-05T10:45:06.234Z,-0.06
2018-02-05T10:46:05.674Z,-0.06
2018-02-05T10:47:05.838Z,-0.06
2018-02-05T10:48:11.565Z,-0.06
2018-02-05T10:49:06.102Z,0.00
2018-02-05T10:50:05.993Z,0.00
2018-02-05T10:51:05.997Z,0.06
2018-02-05T10:52:06.152Z,0.12
2018-02-05T10:53:06.401Z,0.19
2018-02-05T10:54:05.924Z,0.19
2018-02-05T10:55:05.585Z,0.25
2018-02-05T10:56:06.431Z,0.25
2018-02-05T10:57:05.587Z,0.25
2018-02-05T10:58:05.675Z,0.31
2018-02-05T10:59:05.766Z,0.25
2018-02-05T11:03:11.742Z,0.31
2018-02-05T11:04:07.331Z,0.31
2018-02-05T11:05:07.100Z,0.38
2018-02-05T11:12:07.391Z,0.44
2018-02-05T11:13:07.990Z,0.44
2018-02-05T11:14:08.704Z,0.50
2018-02-05T11:17:05.797Z,0.38
2018-02-05T11:18:06.547Z,0.38
2018-02-05T11:19:05.896Z,0.38
2018-02-05T11:20:06.578Z,0.38
2018-02-05T11:21:06.560Z,0.44
2018-02-05T11:22:06.054Z,0.44
2018-02-05T11:23:05.632Z,0.44
2018-02-05T11:24:06.472Z,0.44
2018-02-05T11:25:06.492Z,0.44
2018-02-05T11:26:05.661Z,0.50
2018-02-05T11:27:05.816Z,0.50
2018-02-05T11:28:10.708Z,0.50
2018-02-05T11:29:06.372Z,0.56
2018-02-05T11:30:06.306Z,0.62
2018-02-05T11:31:06.146Z,0.62
2018-02-05T11:32:06.242Z,0.62
2018-02-05T11:33:06.321Z,0.69
2018-02-05T11:34:05.780Z,0.69
2018-02-05T11:35:05.671Z,0.69
2018-02-05T11:36:05.997Z,0.69
2018-02-05T11:37:05.924Z,0.69
2018-02-05T11:38:11.839Z,0.69
2018-02-05T11:39:06.829Z,0.69
2018-02-05T11:40:05.609Z,0.69
2018-02-05T11:41:06.432Z,0.75
2018-02-05T11:42:06.422Z,0.75
2018-02-05T11:43:06.421Z,0.75
2018-02-05T11:44:11.431Z,0.75
2018-02-05T11:45:05.965Z,0.81
2018-02-05T11:46:10.636Z,0.75
2018-02-05T11:47:06.251Z,0.75
2018-02-05T11:48:06.037Z,0.75
2018-02-05T11:49:05.852Z,0.81
2018-02-05T11:50:06.426Z,0.81
2018-02-05T11:51:06.264Z,0.81
2018-02-05T11:52:06.078Z,0.75
2018-02-05T11:53:11.460Z,0.75
2018-02-05T11:54:05.782Z,0.69
2018-02-05T11:55:05.943Z,0.69
2018-02-05T11:56:06.042Z,0.69
2018-02-05T11:57:10.763Z,0.69
2018-02-05T11:58:06.404Z,0.75
2018-02-05T11:59:05.884Z,0.75
2018-02-05T12:00:06.487Z,0.75
2018-02-05T12:01:06.529Z,0.69
2018-02-05T12:02:06.251Z,0.75
2018-02-05T12:03:11.335Z,0.62
2018-02-05T12:04:06.010Z,0.62
2018-02-05T12:05:06.085Z,0.62
2018-02-05T12:06:11.004Z,0.69
2018-02-05T12:07:06.013Z,0.69
2018-02-05T12:08:10.996Z,0.62
2018-02-05T12:09:06.276Z,0.62
2018-02-05T12:10:06.736Z,0.62
2018-02-05T12:11:05.761Z,0.62
2018-02-05T12:12:05.622Z,0.62
2018-02-05T12:13:05.858Z,0.69
2018-02-05T12:14:05.948Z,0.62
2018-02-05T12:15:05.955Z,0.62
2018-02-05T12:16:06.323Z,0.69
2018-02-05T12:17:06.326Z,0.69
2018-02-05T12:18:11.096Z,0.69
2018-02-05T12:19:06.190Z,0.69
2018-02-05T12:20:05.766Z,0.62
2018-02-05T12:21:05.865Z,0.62
2018-02-05T12:22:06.300Z,0.69
2018-02-05T12:23:05.840Z,0.69
2018-02-05T12:24:05.846Z,0.69
2018-02-05T12:25:05.903Z,0.56
2018-02-05T12:26:06.401Z,0.62
2018-02-05T12:27:06.340Z,0.56
2018-02-05T12:28:06.250Z,0.56
2018-02-05T12:29:06.198Z,0.56
2018-02-05T12:30:05.852Z,0.62
2018-02-05T12:31:05.846Z,0.62
2018-02-05T12:32:06.168Z,0.62
2018-02-05T12:33:06.008Z,0.62
2018-02-05T12:34:10.804Z,0.62
2018-02-05T12:35:06.570Z,0.62
2018-02-05T12:36:05.604Z,0.62
2018-02-05T12:37:05.965Z,0.62
2018-02-05T12:38:05.890Z,0.69
2018-02-05T12:39:05.532Z,0.69
2018-02-05T12:40:05.785Z,0.62
2018-02-05T12:41:06.661Z,0.62
2018-02-05T12:42:06.246Z,0.56
2018-02-05T12:43:06.327Z,0.56
2018-02-05T12:44:05.667Z,0.50
2018-02-05T12:45:05.833Z,0.50
2018-02-05T12:46:06.117Z,0.50
2018-02-05T12:47:06.333Z,0.50
2018-02-05T12:48:06.393Z,0.50
2018-02-05T12:49:06.393Z,0.50
2018-02-05T12:50:05.762Z,0.50
2018-02-05T12:51:06.582Z,0.50
2018-02-05T12:52:06.329Z,0.56
2018-02-05T12:53:06.250Z,0.56
2018-02-05T12:54:06.189Z,0.56
2018-02-05T12:55:11.009Z,0.50
2018-02-05T12:56:05.602Z,0.56
2018-02-05T12:57:05.621Z,0.50
2018-02-05T12:58:05.795Z,0.50
2018-02-05T12:59:05.765Z,0.50
2018-02-05T13:00:10.648Z,0.56
2018-02-05T13:01:06.270Z,0.56
2018-02-05T13:02:06.329Z,0.56
2018-02-05T13:03:06.583Z,0.50
2018-02-05T13:04:06.283Z,0.56
2018-02-05T13:05:05.791Z,0.50
2018-02-05T13:06:05.843Z,0.50
2018-02-05T13:07:05.585Z,0.50